Раменское прогноз погоды август 2018

Закрыть ... [X]

Представляем детальный автоматический прогноз погоды, включающий (впервые в России) прогноз дальности видимости и высоты нижней границы облаков (ВНГО),
явлений погоды
(туман, гроза, град, шквал, метель, осадки различных видов).

Прогноз AUTOTAF UUDD  (кликните для просмотра)

AUTOTAF UUDD 100045Z 1003/1012 VRB02MPS 9999 BKN025 TNM06/1006Z TXM04/1009Z FM100600 VRB02MPS 4000 BR BKN007 BECMG 1007/1009 9999 AUTOTAF UUDD 100045Z 1006/1015 VRB02MPS 4000 BR BKN007 TNM06/1006Z TXM04/1009Z BECMG 1007/1009 9999 BECMG 1013/1015 4000 AUTOTAF UUDD 100045Z 1009/1018 VRB02MPS 9999 BKN007 TNM06/1015Z TXM04/1009Z BECMG 1013/1015 4000 FM101800 VRB02MPS 9999 OVC060CB AUTOTAF UUDD 100045Z 1012/1021 VRB02MPS 9999 BKN007 TNM06/1015Z TXM04/1012Z BECMG 1013/1015 4000 FM101800 VRB02MPS 9999 OVC060CB FM102100 VRB02MPS 2000 SN BR BKN003 OVC025 AUTOTAF UUDD 100045Z 1015/1024 VRB02MPS 4000 BR BKN007 OVC100 TNM06/1015Z TXM03/1100Z FM101800 VRB02MPS 9999 OVC060CB FM102100 VRB02MPS 2000 SN BR BKN003 OVC025 BECMG 1022/1100 1200 AUTOTAF UUDD 100045Z 1018/1103 VRB02MPS 9999 OVC060CB TNM06/1018Z TXM02/1103Z FM102100 VRB02MPS 2000 SN BR BKN003 OVC025 BECMG 1022/1100 1200 AUTOTAF UUDD 100045Z 1021/1106 VRB02MPS 2000 SN BR BKN003 OVC025 TNM05/1021Z TXM02/1103Z BECMG 1022/1100 1200 AUTOTAF UUDD 100045Z 1100/1109 VRB02MPS 1200 SN BR BKN003 OVC015 TNM03/1100Z TXM02/1103Z FM110900 03005MPS 2500 BR BKN003 OVC007CB AUTOTAF UUDD 100045Z 1103/1112 VRB02MPS 1200 SN BR BKN003 OVC015 TNM05/1112Z TXM02/1103Z FM110900 03005MPS 2500 BR BKN003 OVC007CB TEMPO 1107/1110 1200 SHSN FM111200 02005MPS 4000 BR OVC007 AUTOTAF UUDD 100045Z 1106/1115 VRB02MPS 1200 SN BR BKN003 OVC040 TNM07/1115Z TXM03/1106Z FM110900 03005MPS 2500 BR BKN003 OVC007CB TEMPO 1107/1110 1200 SHSN FM111200 02005MPS 4000 BR OVC007 AUTOTAF UUDD 100045Z 1109/1118 03005MPS 2500 BR BKN003 OVC007CB TNM09/1118Z TXM03/1109Z TEMPO 1109/1110 1200 SHSN FM111200 02005MPS 4000 BR OVC007 AUTOTAF UUDD 100045Z 1112/1121 02005MPS 4000 BR OVC007 TNM09/1118Z TXM05/1112Z FM112100 03005MPS 9999 OVC015 AUTOTAF UUDD 100045Z 1115/1124 02004MPS 4000 BR BKN007 TNM09/1118Z TXM07/1115Z FM112100 03005MPS 9999 OVC015 AUTOTAF UUDD 100045Z 1118/1203 01004MPS 4000 BR OVC007 TNM09/1118Z TXM08/1121Z FM112100 03005MPS 9999 OVC015 FM120300 02006MPS 4000 BR OVC007 AUTOTAF UUDD 100045Z 1121/1206 03005MPS 9999 OVC015 TNM09/1206Z TXM08/1121Z FM120300 02006MPS 4000 BR OVC007 FM120600 VRB02MPS 9999 OVC015 AUTOTAF UUDD 100045Z 1200/1209 03005MPS 9999 OVC015 TNM09/1206Z TXM07/1209Z FM120300 02006MPS 4000 BR OVC007 FM120600 VRB02MPS 9999 OVC015 BECMG 1207/1209 OVC025 AUTOTAF UUDD 100045Z 1203/1212 02006MPS 4000 BR OVC007 TNM09/1206Z TXM06/1212Z FM120600 VRB02MPS 9999 OVC015 BECMG 1207/1209 OVC025 AUTOTAF UUDD 100045Z 1206/1215 VRB02MPS 9999 OVC015 TNM09/1206Z TXM06/1212Z BECMG 1207/1209 OVC025 AUTOTAF UUDD 100045Z 1209/1218 VRB02MPS 9999 OVC025 TNM09/1218Z TXM06/1212Z BECMG 1216/1218 OVC015

Прогнозы погоды, публикуемые на нашем сайте, носят демонстрационный характер и не предназначены для использования в реальных полётах авиации и для принятия важных решений.

Для получения пояснительной информации подведите курсор мыши к названию столбца
Для просмотра индексов грозы, прогноза ветра и температуры воздуха по высотам кликните по многоточию в нужной ячейке таблицы

Сегодня восход солнца 05:55 UTC, заход солнца 13:16 UTC.

Время (UTC), дата miniAUTOTAF на 3 часа Ветер
(°,м/с)  Вид. (м)   Вид. (м) местами Явления Облачность среднего, нижнего яруса и верт. развития Т
(°С) Тd
(°С) f(%) QNH
(мм/гПа) PP
(%) R
(мм) Rс
(мм) KF
K
SH
LI
F PTS GZ CAPE, SWEAT, MCS W (гПа/
3 ч) Направление и скорость ветра (км/ч), температура воздуха по высотам над уровнем моря Син. сит. Te Theta-W 850 03 10.01.2018 VRB02MPS 9999 BKN025 320 3 9999 ЗНЧ СК 1200/750
-5 -7 88 767
1023 0 ...

-43
-9
13
16
-10

0 0 0 18
18
6...

FL390 (11900 м) 330/110 -56
FL350 (10650 м) 330/120 -57
FL310 (9450 м) 340/130 -56
FL240 (7300 м) 340/120 -44
FL180 (5500 м) 340/80 -34
FL100 (3050 м) 350/40 -18
FL50 (1500 м) 350/40 -9
FL30 (900 м) 340/40 -10
FL20 (600 м) 330/40 -7

восточная периферия антициклона -8 -2 06 10.01.2018 VRB02MPS 4000 BR BKN007 310 3 4000 дымка ЗНЧ СЛ 1200/210
-6 -7 95 768
1024 0...

-44
-8
13
18
-10

0 0 0 19
27
6...

FL390 (11900 м) 330/100 -57
FL350 (10650 м) 330/110 -58
FL310 (9450 м) 340/110 -56
FL240 (7300 м) 340/120 -43
FL180 (5500 м) 340/80 -34
FL100 (3050 м) 350/40 -18
FL50 (1500 м) 340/30 -9
FL30 (900 м) 340/30 -8
FL20 (600 м) 340/30 -7

восточная периферия антициклона -9 -2 09 10.01.2018 VRB02MPS 9999 BKN007 300 3 9999 ЗНЧ СЛ 800/210
-4 -7 82 768
1024 0...

-54
-14
15
20
-11

0 0 0 0
6
-1...

FL390 (11900 м) 330/100 -58
FL350 (10650 м) 330/100 -58
FL310 (9450 м) 330/90 -57
FL240 (7300 м) 340/90 -44
FL180 (5500 м) 350/80 -32
FL100 (3050 м) 330/30 -18
FL50 (1500 м) 330/30 -9
FL30 (900 м) 340/30 -7
FL20 (600 м) 330/30 -7

восточная периферия антициклона -7 -2 12 10.01.2018 VRB02MPS 9999 BKN007 290 3 9999 ЗНЧ СЛ 800/210
-4 -6 87 768
1024 0...

-62
-27
16
20
-12

0 0 0 -5
-1
-4...

FL390 (11900 м) 330/100 -58
FL350 (10650 м) 330/100 -58
FL310 (9450 м) 330/90 -56
FL240 (7300 м) 330/80 -44
FL180 (5500 м) 340/70 -32
FL100 (3050 м) 310/30 -18
FL50 (1500 м) 330/30 -10
FL30 (900 м) 330/30 -7
FL20 (600 м) 320/30 -7

северо-восточная периферия антициклона -7 -2 15 10.01.2018 VRB02MPS 4000 BR BKN007 OVC100 280 2 4000 дымка ЗНЧ СЛ 600/210
СПЛ ВС 6000/3000 -6 -7 90 767
1023 0...

-44
-21
16
19
-11

0 0 0 -14
1
-3...

FL390 (11900 м) 330/100 -58
FL350 (10650 м) 330/90 -58
FL310 (9450 м) 330/90 -55
FL240 (7300 м) 330/70 -45
FL180 (5500 м) 330/60 -33
FL100 (3050 м) 330/40 -18
FL50 (1500 м) 330/30 -10
FL30 (900 м) 330/30 -8
FL20 (600 м) 320/30 -7

северо-восточная периферия антициклона -8 -3 18 10.01.2018 VRB02MPS 9999 OVC060CB 280 2 9999 ЧАСТ КД 3000/1800
-6 -7 91 766
1022 0 0...

-5
2
14
10
-9

0 0 0 -13
5
-2...

FL390 (11900 м) 330/90 -58
FL350 (10650 м) 330/100 -57
FL310 (9450 м) 340/100 -54
FL240 (7300 м) 330/80 -44
FL180 (5500 м) 330/60 -34
FL100 (3050 м) 340/50 -18
FL50 (1500 м) 320/30 -10
FL30 (900 м) 320/30 -7
FL20 (600 м) 310/30 -6

тёплый фронт -8 -2 21 10.01.2018 VRB02MPS 2000 SN BR BKN003 OVC025 250 2 2000 снег, дымка ЗНЧ РД 750/90
СПЛ СК 6000/750
-5 -5 98 765
1021 70 0.3...

15
15
11
12
-6

0 0 0 -12
6
-14...

FL390 (11900 м) 330/90 -57
FL350 (10650 м) 330/100 -56
FL310 (9450 м) 330/100 -54
FL240 (7300 м) 330/80 -45
FL180 (5500 м) 330/50 -34
FL100 (3050 м) 330/50 -19
FL50 (1500 м) 310/30 -9
FL30 (900 м) 310/30 -7
FL20 (600 м) 300/20 -5

тёплый фронт -7 -1 00 11.01.2018 VRB02MPS 1200 SN BR BKN003 OVC015 250 3 1200 снег, дымка ЗНЧ РД 450/90
СПЛ СД 6000/450
-3 -3 99 765
1021 70 0.6...

17
17
9
11
-4

0 0 0 6
-8
-25...

FL390 (11900 м) 330/90 -57
FL350 (10650 м) 330/90 -56
FL310 (9450 м) 330/80 -53
FL240 (7300 м) 330/70 -45
FL180 (5500 м) 330/60 -35
FL100 (3050 м) 330/40 -19
FL50 (1500 м) 310/30 -9
FL30 (900 м) 310/30 -7
FL20 (600 м) 300/30 -4

тёплый фронт -6 -0 03 11.01.2018 VRB02MPS 1200 SN BR BKN003 OVC015 280 3 1200 снег, дымка ЗНЧ РД 450/90
СПЛ СК 6000/450
-2 -3 96 765
1020 70 0.3...

15
17
9
11
-4

0 0 0 0
-9
-18...

FL390 (11900 м) 330/90 -57
FL350 (10650 м) 330/90 -56
FL310 (9450 м) 330/80 -54
FL240 (7300 м) 340/70 -43
FL180 (5500 м) 330/50 -35
FL100 (3050 м) 320/40 -18
FL50 (1500 м) 320/30 -9
FL30 (900 м) 320/30 -7
FL20 (600 м) 310/30 -5

малоподвижный фронт -5 0 06 11.01.2018 VRB02MPS 1200 SN BR BKN003 OVC040 330 3 1200 снег, дымка ЗНЧ РД 1200/90
СПЛ СД 6000/1200
-3 -3 96 765
1020 70 0.4...

13
16
10
9
-5

0 0 0 1
-12
-16...

FL390 (11900 м) 330/80 -56
FL350 (10650 м) 330/80 -55
FL310 (9450 м) 330/80 -54
FL240 (7300 м) 330/70 -44
FL180 (5500 м) 340/50 -35
FL100 (3050 м) 320/40 -18
FL50 (1500 м) 340/30 -9
FL30 (900 м) 350/20 -7
FL20 (600 м) 350/30 -5

тыл ложбины -6 -0 09 11.01.2018 03005MPS 2500 BR BKN003 OVC007CB
TEMPO 1200 SHSN 30 5 2500 1200 местами ливневой снег, дымка ЗНЧ РД 210/90
ЧАСТ КД 4000/210
-3 -5 88 765
1021 50 0.3...

5
14
10
14
-6

0 0 0 0
2
-3...

FL390 (11900 м) 340/80 -55
FL350 (10650 м) 340/80 -55
FL310 (9450 м) 340/80 -53
FL240 (7300 м) 340/60 -45
FL180 (5500 м) 340/50 -35
FL100 (3050 м) 330/40 -19
FL50 (1500 м) 010/30 -10
FL30 (900 м) 020/20 -8
FL20 (600 м) 030/20 -7

тыл ложбины -7 -2 12 11.01.2018 02005MPS 4000 BR OVC007 20 5 4000 дымка СПЛ СЛ 2500/210
-5 -7 84 766
1022 0...

-35
-0
13
17
-10

0 0 0 5
3
10...

FL390 (11900 м) 340/80 -55
FL350 (10650 м) 350/80 -55
FL310 (9450 м) 360/70 -53
FL240 (7300 м) 360/70 -44
FL180 (5500 м) 350/50 -35
FL100 (3050 м) 340/40 -19
FL50 (1500 м) 020/30 -11
FL30 (900 м) 030/30 -9
FL20 (600 м) 030/20 -8

юго-восточная периферия антициклона -10 -3 15 11.01.2018 02004MPS 4000 BR BKN007 20 4 4000 дымка ЗНЧ СЛ 600/210
-7 -9 88 768
1024 0...

-39
-8
17
21
-12

0 0 0 10
12
5...

FL390 (11900 м) 350/80 -56
FL350 (10650 м) 360/90 -55
FL310 (9450 м) 010/80 -53
FL240 (7300 м) 360/60 -44
FL180 (5500 м) 010/50 -34
FL100 (3050 м) 010/40 -19
FL50 (1500 м) 030/30 -12
FL30 (900 м) 030/30 -10
FL20 (600 м) 030/30 -8

юго-восточная периферия антициклона -12 -4 18 11.01.2018 01004MPS 4000 BR OVC007 10 4 4000 дымка СПЛ СЛ 2000/210
-9 -10 92 769
1026 0...

-30
0
15
23
-11

0 0 0 6
12
5...

FL390 (11900 м) 360/90 -57
FL350 (10650 м) 010/110 -55
FL310 (9450 м) 010/100 -52
FL240 (7300 м) 010/70 -43
FL180 (5500 м) 010/50 -35
FL100 (3050 м) 020/40 -20
FL50 (1500 м) 030/30 -13
FL30 (900 м) 030/30 -10
FL20 (600 м) 030/30 -10

юго-восточная периферия антициклона -14 -4 21 11.01.2018 03005MPS 9999 OVC015 30 5 9999 СПЛ СК 2000/450
-8 -10 88 771
1028 30 0.1...

-30
-2
16
17
-11

0 0 0 12
12
11...

FL390 (11900 м) 360/90 -58
FL350 (10650 м) 010/100 -56
FL310 (9450 м) 020/110 -51
FL240 (7300 м) 020/90 -42
FL180 (5500 м) 020/50 -35
FL100 (3050 м) 030/40 -20
FL50 (1500 м) 040/30 -13
FL30 (900 м) 040/30 -11
FL20 (600 м) 030/30 -13

южная периферия антициклона -14 -5 00 12.01.2018 03005MPS 9999 OVC015 30 5 9999 СПЛ СК 2500/450
-8 -10 82 772
1030 0...

-30
-2
16
23
-11

0 0 0 23
14
8...

FL390 (11900 м) 360/80 -59
FL350 (10650 м) 010/100 -56
FL310 (9450 м) 020/120 -51
FL240 (7300 м) 020/100 -42
FL180 (5500 м) 030/60 -34
FL100 (3050 м) 030/40 -20
FL50 (1500 м) 040/30 -13
FL30 (900 м) 040/30 -11
FL20 (600 м) 030/30 -12

южная периферия антициклона -14 -5 03 12.01.2018 02006MPS 4000 BR OVC007 20 6 4000 дымка СПЛ СЛ 2500/210
-8 -9 91 774
1032 0...

-34
-4
17
23
-12

0 0 0 17
16
11...

FL390 (11900 м) 360/80 -59
FL350 (10650 м) 010/100 -56
FL310 (9450 м) 020/120 -51
FL240 (7300 м) 030/90 -44
FL180 (5500 м) 030/70 -34
FL100 (3050 м) 040/40 -19
FL50 (1500 м) 040/30 -13
FL30 (900 м) 040/40 -11
FL20 (600 м) 030/30 -12

юго-восточная периферия антициклона -14 -5 06 12.01.2018 VRB02MPS 9999 OVC015 20 3 9999 СПЛ СК 2500/450
-9 -10 93 775
1034 0...

-32
-2
18
22
-12

0 0 0 30
21
12...

FL390 (11900 м) 010/80 -60
FL350 (10650 м) 020/100 -57
FL310 (9450 м) 030/110 -52
FL240 (7300 м) 040/80 -44
FL180 (5500 м) 040/70 -34
FL100 (3050 м) 050/50 -19
FL50 (1500 м) 040/30 -13
FL30 (900 м) 040/30 -12
FL20 (600 м) 040/30 -11 погоды

юго-восточная периферия антициклона -13 -5 09 12.01.2018 VRB02MPS 9999 OVC025 10 3 9999 СПЛ СК 1800/750
-7 -9 86 776
1035 0...

-40
-5
17
20
-12

0 0 0 23
18
8...

FL390 (11900 м) 010/70 -61
FL350 (10650 м) 030/100 -58
FL310 (9450 м) 040/120 -52
FL240 (7300 м) 040/80 -43
FL180 (5500 м) 040/60 -33
FL100 (3050 м) 050/40 -19
FL50 (1500 м) 030/30 -13
FL30 (900 м) 050/30 -13
FL20 (600 м) 040/30 -11

юго-восточная периферия антициклона -11 -4 12 12.01.2018 20 5 9999 СПЛ СК 1200/1200
-6 -8 84 777
1037 30 0.1...

-55
-17
17
17
-12

0 0 0 15
12
12...

FL390 (11900 м) 010/60 -61
FL350 (10650 м) 030/80 -59
FL310 (9450 м) 040/100 -53
FL240 (7300 м) 050/100 -42
FL180 (5500 м) 040/60 -33
FL100 (3050 м) 040/40 -18
FL50 (1500 м) 030/30 -11
FL30 (900 м) 020/30 -14
FL20 (600 м) 020/30 -11

юго-восточная периферия антициклона -11 -4 15 12.01.2018 20 5 9999 СПЛ СК 1200/750
-7 -9 82 778
1038 0...

-57
-20
18
23
-13

0 0 0 21
13
10...

FL390 (11900 м) 010/60 -62
FL350 (10650 м) 030/70 -60
FL310 (9450 м) 040/90 -55
FL240 (7300 м) 050/100 -42
FL180 (5500 м) 050/80 -32
FL100 (3050 м) 040/40 -18
FL50 (1500 м) 040/30 -11
FL30 (900 м) 020/30 -13
FL20 (600 м) 020/30 -12

юго-восточная периферия антициклона -12 -3 18 12.01.2018 30 3 9999 СПЛ СК 800/450
-9 -10 92 779
1039 0...

-59
-22
20
29
-14

0 0 0 22
12
8...

FL390 (11900 м) 020/50 -62
FL350 (10650 м) 030/70 -61
FL310 (9450 м) 040/80 -56
FL240 (7300 м) 050/90 -43
FL180 (5500 м) 060/90 -30
FL100 (3050 м) 050/40 -17
FL50 (1500 м) 040/30 -11
FL30 (900 м) 040/30 -11
FL20 (600 м) 030/20 -13

гребень -13 -3 21 12.01.2018 30 2 1200 дымка СПЛ СЛ 600/90
-11 -11 97 780
1040 0...

-54
-24
20
31
-14

0 0 0 13
12
5...

FL390 (11900 м) 020/50 -63
FL350 (10650 м) 030/60 -62
FL310 (9450 м) 040/70 -56
FL240 (7300 м) 040/80 -43
FL180 (5500 м) 050/60 -31
FL100 (3050 м) 040/30 -17
FL50 (1500 м) 050/30 -11
FL30 (900 м) 050/20 -10
FL20 (600 м) 040/10 -13

гребень -14 -3

Смотрите также:

Примечания:
- минимальная видимость (кратковременное ухудшение в локальных явлениях погоды) в радиусе 50 км от точки.
- указано максимальное количество локальных конвективных осадков (мм/3 ч) в радиусе 50 км от точки, при этом в данной точке осадков может и не быть.

Цвет рамки ячеек прогноза MINITAF означает условия (высота нижней границы облаков х видимость):

зелёный - VFR (выше 900х8000);

голубой - MVFR (ниже 900х8000, но не ниже 300х5000);

красный - IFR (ниже 300х5000, но не ниже 150х2000);

пурпурный - LIFR (ниже 150х2000, но не ниже 90х800);

фиолетовый - VLIFR (ниже 90х800).

Атмосферное давление Ро указано для среднего уровня рельефа местности (181 м абс.).

Широта 55.40832°, долгота 37.90667°.
Посмотреть пункт Москва (Домодедово) на географической карте


Для каждого облачного слоя указана (через дробную черту) его верхняя и нижняя граница (в метрах над средним уровнем рельефа местности).
Количество облаков в данном слое обозначается:
ЯСНО - отсутствие облаков ниже 6000 м над уровнем рельефа местности;
РЗБ - разбросанная, 3-5 баллов (2-4 октанта);
ЗНЧ - значительная, 6-9 баллов (5-7 октантов);
СПЛ - сплошная, 10 баллов (8 октантов).
Для количества кучево-дождевых облаков используются термины:
ИЗОЛ - изолированная, 1-4 балла (1-3 октанта);
РЕДК - редкая, 5-7 баллов (4-6 октантов);
ЧАСТ - частая, 8-10 баллов (6-8 октантов).
1 балл = 1/10 небосвода, 1 октант = 1/8 небосвода.

Формы облаков: ВК - высоко-кучевая, ВС - высоко-слоистая, СК - слоисто-кучевая, СЛ - слоистая, СД - слоисто-дождевая, РД - разорванно-дождевая, КЧ - кучевая, МК - мощно-кучевая, КД - кучево-дождевая.

Прогнозы по данной модели обновляются четыре раза в сутки - в 01, 08, 13, 20 часов всемирного времени (05, 12, 17, 24 ч мск времени).
В течение часа до этого срока время в прогнозах может отображаться некорректно, так как проводится обновление данных.

Прогноз предназначен в первую очередь для равнинной местности, а в холмистой и горной местности могут быть большие погрешности, особенно по высоте нижней границы облаков.

Прогноз является результатом автоматизированных компьютерных расчётов и предназначен для личного использования частными лицами
Для получения официальных прогнозов (разработанных вручную специалистами-синоптиками) и использования их в коммерческих целях и для принятия важных решений, Вам необходимо заключить договор с ФГБУ "Авиаметтелеком Росгидромета".

При копировании или ином использовании любых материалов данного сайта ссылка на © meteocenter.asia обязательна.


Источник: http://meteocenter.asia/?m=gcc&p=UUBW



Рекомендуем посмотреть ещё:



НОГОДА : Погода на август в Раменском. Сверхдолгосрочный прогноз
Как вставить vray в 3d max 2018Новый нокиа 2018 цена и комплектация фотоСколько выпускников в 2018 году в крымуКак оплачивается отпуск по беременности и родам в 2018Расписание автобусов тамбов с нового автовокзала 2018


Раменское прогноз погоды август 2018 Раменское прогноз погоды август 2018 Раменское прогноз погоды август 2018 Раменское прогноз погоды август 2018 Раменское прогноз погоды август 2018 Раменское прогноз погоды август 2018 Раменское прогноз погоды август 2018 Раменское прогноз погоды август 2018



ШОКИРУЮЩИЕ НОВОСТИ